createdAt,value
2019-05-12T00:00:49.762Z,63.70
2019-05-12T00:03:21.249Z,63.40
2019-05-12T00:05:52.742Z,63.40
2019-05-12T00:08:27.746Z,63.50
2019-05-12T00:10:59.872Z,63.90
2019-05-12T00:13:31.304Z,63.80
2019-05-12T00:16:02.876Z,63.80
2019-05-12T00:18:34.309Z,63.80
2019-05-12T00:21:08.620Z,63.70
2019-05-12T00:23:58.188Z,64.20
2019-05-12T00:26:30.483Z,64.40
2019-05-12T00:29:02.161Z,64.10
2019-05-12T00:31:34.038Z,64.60
2019-05-12T00:34:04.354Z,64.40
2019-05-12T00:36:37.940Z,64.70
2019-05-12T00:39:09.199Z,64.40
2019-05-12T00:41:42.753Z,64.40
2019-05-12T00:44:18.179Z,64.80
2019-05-12T00:46:48.902Z,64.80
2019-05-12T00:49:22.257Z,65.10
2019-05-12T00:51:53.686Z,65.00
2019-05-12T00:54:25.711Z,64.90
2019-05-12T00:56:58.579Z,65.20
2019-05-12T00:59:31.405Z,65.20
2019-05-12T01:02:02.275Z,65.00
2019-05-12T01:04:34.980Z,65.10
2019-05-12T01:07:05.282Z,65.20
2019-05-12T01:09:38.444Z,65.60
2019-05-12T01:12:09.616Z,65.40
2019-05-12T01:14:41.438Z,65.20
2019-05-12T01:17:13.257Z,65.20
2019-05-12T01:19:43.564Z,65.40
2019-05-12T01:22:15.072Z,65.50
2019-05-12T01:24:45.433Z,65.50
2019-05-12T01:27:18.111Z,65.90
2019-05-12T01:29:50.592Z,66.10
2019-05-12T01:32:28.740Z,65.90
2019-05-12T01:35:00.330Z,65.80
2019-05-12T01:37:32.138Z,65.90
2019-05-12T01:40:02.475Z,66.30
2019-05-12T01:42:38.009Z,66.00
2019-05-12T01:45:09.514Z,66.10
2019-05-12T01:47:41.570Z,66.20
2019-05-12T01:50:13.873Z,66.50
2019-05-12T01:52:45.241Z,66.50
2019-05-12T01:55:18.593Z,66.70
2019-05-12T01:57:50.122Z,66.50
2019-05-12T02:00:21.798Z,66.80
2019-05-12T02:02:53.209Z,66.90
2019-05-12T02:05:24.648Z,67.00
2019-05-12T02:07:58.409Z,66.70
2019-05-12T02:10:30.150Z,66.40
2019-05-12T02:13:02.006Z,66.40
2019-05-12T02:15:33.489Z,66.40
2019-05-12T02:18:05.178Z,66.60
2019-05-12T02:20:38.115Z,66.90
2019-05-12T02:23:09.319Z,67.00
2019-05-12T02:25:39.550Z,66.70
2019-05-12T02:28:10.783Z,66.40
2019-05-12T02:30:42.631Z,66.70
2019-05-12T02:33:15.953Z,66.80
2019-05-12T02:35:46.481Z,66.90
2019-05-12T02:38:18.306Z,67.00
2019-05-12T02:40:50.335Z,67.30
2019-05-12T02:43:24.378Z,67.40
2019-05-12T02:45:55.209Z,67.10
2019-05-12T02:48:25.820Z,67.10
2019-05-12T02:50:57.515Z,67.10
2019-05-12T02:53:28.600Z,66.70
2019-05-12T02:56:01.026Z,66.90
2019-05-12T02:58:34.692Z,66.80
2019-05-12T03:01:06.298Z,66.60
2019-05-12T03:03:39.255Z,66.80
2019-05-12T03:06:10.708Z,67.00
2019-05-12T03:08:44.865Z,67.00
2019-05-12T03:11:16.578Z,67.00
2019-05-12T03:13:48.451Z,67.00
2019-05-12T03:16:18.793Z,66.90
2019-05-12T03:18:50.281Z,66.80
2019-05-12T03:21:20.748Z,66.30
2019-05-12T03:23:54.861Z,66.30
2019-05-12T03:26:25.333Z,66.50
2019-05-12T03:28:55.789Z,66.30
2019-05-12T03:31:31.495Z,66.80
2019-05-12T03:34:00.798Z,66.90
2019-05-12T03:36:39.172Z,66.80
2019-05-12T03:39:07.809Z,66.50
2019-05-12T03:41:39.242Z,66.60
2019-05-12T03:44:10.638Z,66.60
2019-05-12T03:46:45.304Z,66.40
2019-05-12T03:49:15.650Z,66.30
2019-05-12T03:51:47.161Z,66.40
2019-05-12T03:54:18.723Z,66.10
2019-05-12T03:56:51.154Z,66.20
2019-05-12T03:59:25.362Z,66.30
2019-05-12T04:01:59.787Z,66.30
2019-05-12T04:04:34.519Z,66.30
2019-05-12T04:07:05.270Z,66.20
2019-05-12T04:09:37.141Z,66.10
2019-05-12T04:12:07.495Z,65.90
2019-05-12T04:14:38.697Z,66.20
2019-05-12T04:17:10.171Z,66.20
2019-05-12T04:19:44.566Z,65.90
2019-05-12T04:22:15.579Z,65.90
2019-05-12T04:24:47.653Z,66.20
2019-05-12T04:27:19.045Z,65.90
2019-05-12T04:29:50.412Z,66.30
2019-05-12T04:32:24.996Z,66.10
2019-05-12T04:34:56.520Z,65.90
2019-05-12T04:37:28.321Z,65.70
2019-05-12T04:39:58.938Z,65.70
2019-05-12T04:42:30.154Z,65.90
2019-05-12T04:45:04.438Z,65.80
2019-05-12T04:47:35.930Z,65.60
2019-05-12T04:50:07.381Z,65.30
2019-05-12T04:52:38.880Z,65.60
2019-05-12T04:55:10.603Z,65.70
2019-05-12T04:57:40.922Z,65.60
2019-05-12T05:00:15.420Z,65.50
2019-05-12T05:02:46.713Z,65.90
2019-05-12T05:05:18.731Z,65.80
2019-05-12T05:07:50.100Z,65.70
2019-05-12T05:10:24.741Z,65.40
2019-05-12T05:12:55.485Z,65.30
2019-05-12T05:15:28.567Z,65.60
2019-05-12T05:18:00.714Z,65.20
2019-05-12T05:20:34.225Z,65.20
2019-05-12T05:23:07.559Z,64.80
2019-05-12T05:25:39.687Z,64.50
2019-05-12T05:28:14.327Z,64.80
2019-05-12T05:30:45.811Z,64.10
2019-05-12T05:33:25.468Z,64.70
2019-05-12T05:35:57.513Z,64.60
2019-05-12T05:38:29.478Z,64.60
2019-05-12T05:41:05.920Z,63.90
2019-05-12T05:43:34.023Z,64.60
2019-05-12T05:46:07.973Z,64.60
2019-05-12T05:48:39.291Z,64.40
2019-05-12T05:51:13.672Z,64.30
2019-05-12T05:53:49.825Z,64.20
2019-05-12T05:56:19.284Z,64.50
2019-05-12T05:58:52.407Z,64.20
2019-05-12T06:01:24.990Z,64.20
2019-05-12T06:03:58.276Z,64.40
2019-05-12T06:06:31.032Z,64.20
2019-05-12T06:09:03.595Z,64.50
2019-05-12T06:11:34.702Z,63.80
2019-05-12T06:14:11.385Z,63.70
2019-05-12T06:16:40.183Z,63.30
2019-05-12T06:19:13.920Z,63.60
2019-05-12T06:21:44.942Z,64.00
2019-05-12T06:24:19.982Z,63.60
2019-05-12T06:26:57.709Z,63.60
2019-05-12T06:29:24.810Z,63.30
2019-05-12T06:32:00.095Z,63.40
2019-05-12T06:34:29.478Z,63.40
2019-05-12T06:37:03.073Z,63.10
2019-05-12T06:39:34.961Z,63.90
2019-05-12T06:42:12.380Z,63.60
2019-05-12T06:44:39.028Z,62.70
2019-05-12T06:47:10.534Z,63.30
2019-05-12T06:49:43.963Z,63.70
2019-05-12T06:52:15.460Z,62.80
2019-05-12T06:54:51.441Z,62.40
2019-05-12T06:57:25.398Z,63.10
2019-05-12T06:59:55.057Z,62.80
2019-05-12T07:02:30.213Z,62.50
2019-05-12T07:04:59.662Z,62.70
2019-05-12T07:07:35.544Z,62.60
2019-05-12T07:10:11.630Z,62.00
2019-05-12T07:12:54.056Z,62.90
2019-05-12T07:15:14.144Z,63.30
2019-05-12T07:17:50.140Z,63.60
2019-05-12T07:20:24.025Z,63.30
2019-05-12T07:22:55.279Z,63.30
2019-05-12T07:25:31.059Z,62.90
2019-05-12T07:28:01.542Z,63.40
2019-05-12T07:30:35.116Z,63.50
2019-05-12T07:33:06.008Z,63.20
2019-05-12T07:35:39.785Z,63.60
2019-05-12T07:38:20.817Z,63.10
2019-05-12T07:40:47.092Z,63.00
2019-05-12T07:43:20.681Z,62.90
2019-05-12T07:46:02.163Z,63.10
2019-05-12T07:48:27.373Z,62.60
2019-05-12T07:51:00.668Z,62.70
2019-05-12T07:53:33.837Z,62.20
2019-05-12T07:56:05.394Z,62.00
2019-05-12T07:58:41.009Z,62.20
2019-05-12T08:01:10.522Z,62.70
2019-05-12T08:03:40.763Z,63.10
2019-05-12T08:06:14.227Z,62.80
2019-05-12T08:08:50.566Z,62.40
2019-05-12T08:11:18.940Z,62.70
2019-05-12T08:13:50.368Z,63.20
2019-05-12T08:16:25.612Z,63.20
2019-05-12T08:18:54.698Z,63.40
2019-05-12T08:21:26.477Z,63.40
2019-05-12T08:23:56.685Z,63.10
2019-05-12T08:26:27.878Z,63.60
2019-05-12T08:28:59.635Z,63.60
2019-05-12T08:31:33.075Z,64.20
2019-05-12T08:34:04.273Z,64.00
2019-05-12T08:36:36.074Z,64.00
2019-05-12T08:39:11.965Z,63.70
2019-05-12T08:41:40.627Z,64.20
2019-05-12T08:44:10.836Z,64.20
2019-05-12T08:46:51.939Z,64.30
2019-05-12T08:49:17.628Z,64.10
2019-05-12T08:51:49.593Z,64.00
2019-05-12T08:54:23.279Z,64.20
2019-05-12T08:56:59.292Z,64.20
2019-05-12T08:59:28.196Z,64.30
2019-05-12T09:02:00.429Z,64.20
2019-05-12T09:04:33.880Z,64.30
2019-05-12T09:07:06.142Z,63.90
2019-05-12T09:09:38.001Z,64.00
2019-05-12T09:12:10.090Z,63.70
2019-05-12T09:14:46.306Z,63.80
2019-05-12T09:17:15.140Z,64.00
2019-05-12T09:19:46.514Z,63.80
2019-05-12T09:22:20.862Z,64.00
2019-05-12T09:24:53.386Z,64.00
2019-05-12T09:27:24.697Z,63.90
2019-05-12T09:29:59.152Z,64.10
2019-05-12T09:32:29.008Z,63.80
2019-05-12T09:35:01.198Z,63.50
2019-05-12T09:37:39.045Z,63.70
2019-05-12T09:40:06.750Z,63.20
2019-05-12T09:42:38.233Z,63.60
2019-05-12T09:45:10.569Z,63.90
2019-05-12T09:47:43.658Z,64.20
2019-05-12T09:50:20.078Z,64.50
2019-05-12T09:52:52.742Z,64.30
2019-05-12T09:55:24.743Z,63.80
2019-05-12T09:57:55.302Z,64.10
2019-05-12T10:00:30.411Z,64.00
2019-05-12T10:03:00.840Z,64.10
2019-05-12T10:05:39.268Z,64.30
2019-05-12T10:08:05.455Z,64.50
2019-05-12T10:10:40.239Z,64.60
2019-05-12T10:13:13.651Z,64.40
2019-05-12T10:15:45.451Z,64.50
2019-05-12T10:18:17.205Z,64.60
2019-05-12T10:20:48.503Z,64.70
2019-05-12T10:23:24.484Z,64.70
2019-05-12T10:25:54.274Z,64.60
2019-05-12T10:28:26.004Z,64.80
2019-05-12T10:30:57.004Z,64.40
2019-05-12T10:33:28.690Z,64.60
2019-05-12T10:35:59.322Z,64.80
2019-05-12T10:38:34.203Z,64.90
2019-05-12T10:41:05.550Z,65.30
2019-05-12T10:43:37.525Z,65.20
2019-05-12T10:46:08.878Z,65.20
2019-05-12T10:48:41.612Z,65.20
2019-05-12T10:51:12.970Z,64.90
2019-05-12T10:53:48.782Z,65.00
2019-05-12T10:56:17.399Z,65.30
2019-05-12T10:58:49.146Z,65.60
2019-05-12T11:01:20.889Z,65.90
2019-05-12T11:03:52.274Z,65.60
2019-05-12T11:06:24.363Z,65.50
2019-05-12T11:08:56.276Z,66.30
2019-05-12T11:11:32.900Z,66.10
2019-05-12T11:14:03.794Z,66.60
2019-05-12T11:16:35.147Z,66.40
2019-05-12T11:19:10.216Z,66.00
2019-05-12T11:21:38.503Z,65.80
2019-05-12T11:24:09.860Z,65.90
2019-05-12T11:26:43.280Z,66.00
2019-05-12T11:29:14.882Z,66.00
2019-05-12T11:31:46.335Z,66.00
2019-05-12T11:34:18.079Z,66.20
2019-05-12T11:36:49.665Z,65.80
2019-05-12T11:39:23.440Z,66.30
2019-05-12T11:41:55.404Z,66.30
2019-05-12T11:44:27.865Z,66.30
2019-05-12T11:46:59.312Z,66.10
2019-05-12T11:49:33.427Z,66.10
2019-05-12T11:52:07.619Z,66.20
2019-05-12T11:54:41.228Z,66.40
2019-05-12T11:57:13.205Z,66.50
2019-05-12T11:59:58.137Z,66.20
2019-05-12T12:02:20.237Z,66.20
2019-05-12T12:04:54.356Z,65.90
2019-05-12T12:07:26.169Z,66.30
2019-05-12T12:09:59.538Z,66.50
2019-05-12T12:12:31.808Z,66.10
2019-05-12T12:15:04.699Z,66.20
2019-05-12T12:17:36.544Z,66.30
2019-05-12T12:20:14.067Z,65.90
2019-05-12T12:22:46.381Z,65.90
2019-05-12T12:25:43.224Z,65.80
2019-05-12T12:28:13.685Z,65.80
2019-05-12T12:30:47.358Z,66.30
2019-05-12T12:33:18.369Z,66.20
2019-05-12T12:35:55.776Z,66.10
2019-05-12T12:38:24.460Z,65.40
2019-05-12T12:40:55.854Z,65.50
2019-05-12T12:43:27.598Z,65.50
2019-05-12T12:46:18.024Z,65.60
2019-05-12T12:48:45.869Z,65.50
2019-05-12T12:51:17.706Z,65.00
2019-05-12T12:53:50.006Z,65.40
2019-05-12T12:56:25.144Z,66.10
2019-05-12T12:58:55.420Z,65.20
2019-05-12T13:01:28.728Z,65.30
2019-05-12T13:04:04.533Z,65.20
2019-05-12T13:06:34.606Z,65.20
2019-05-12T13:09:18.236Z,65.30
2019-05-12T13:11:41.585Z,65.40
2019-05-12T13:14:13.449Z,65.60
2019-05-12T13:16:49.422Z,65.50
2019-05-12T13:19:21.346Z,66.10
2019-05-12T13:21:54.328Z,66.10
2019-05-12T13:24:25.577Z,66.40
2019-05-12T13:26:56.907Z,65.80
2019-05-12T13:29:38.596Z,66.00
2019-05-12T13:32:03.333Z,66.00
2019-05-12T13:34:38.527Z,65.90
2019-05-12T13:37:09.375Z,66.20
2019-05-12T13:39:41.105Z,66.30
2019-05-12T13:42:13.666Z,66.30
2019-05-12T13:44:45.313Z,66.40
2019-05-12T13:47:17.138Z,66.40
2019-05-12T13:49:48.853Z,66.60
2019-05-12T13:52:26.393Z,66.70
2019-05-12T13:54:53.786Z,66.30
2019-05-12T13:57:25.477Z,66.30
2019-05-12T14:00:08.519Z,66.70
2019-05-12T14:02:29.571Z,66.50
2019-05-12T14:05:07.070Z,66.50
2019-05-12T14:07:34.550Z,66.10
2019-05-12T14:10:08.210Z,65.80
2019-05-12T14:12:40.144Z,65.20
2019-05-12T14:15:14.184Z,64.90
2019-05-12T14:17:44.940Z,65.10
2019-05-12T14:20:20.091Z,65.10
2019-05-12T14:22:49.588Z,64.80
2019-05-12T14:25:26.051Z,64.90
2019-05-12T14:27:54.045Z,65.20
2019-05-12T14:30:25.201Z,65.50
2019-05-12T14:32:59.109Z,65.30
2019-05-12T14:35:32.744Z,64.90
2019-05-12T14:38:03.937Z,64.90
2019-05-12T14:40:35.643Z,65.00
2019-05-12T14:43:10.271Z,65.60
2019-05-12T14:45:40.319Z,64.80
2019-05-12T14:48:13.275Z,64.80
2019-05-12T14:50:44.641Z,64.40
2019-05-12T14:53:15.800Z,65.20
2019-05-12T14:55:47.614Z,65.00
2019-05-12T14:58:20.564Z,64.40
2019-05-12T15:00:56.424Z,64.50
2019-05-12T15:03:24.567Z,65.40
2019-05-12T15:05:55.035Z,65.10
2019-05-12T15:08:35.946Z,64.40
2019-05-12T15:11:00.497Z,65.00
2019-05-12T15:13:34.186Z,65.60
2019-05-12T15:16:05.739Z,64.80
2019-05-12T15:18:39.724Z,64.60
2019-05-12T15:21:11.183Z,64.90
2019-05-12T15:23:44.177Z,66.00
2019-05-12T15:26:19.689Z,65.70
2019-05-12T15:28:48.599Z,65.90
2019-05-12T15:31:20.068Z,65.30
2019-05-12T15:33:51.615Z,65.60
2019-05-12T15:36:24.454Z,65.20
2019-05-12T15:38:58.845Z,65.20
2019-05-12T15:41:29.315Z,65.20
2019-05-12T15:44:03.341Z,64.70
2019-05-12T15:46:40.963Z,65.20
2019-05-12T15:49:08.998Z,65.30
2019-05-12T15:51:51.269Z,65.30
2019-05-12T15:54:15.062Z,65.30
2019-05-12T15:56:47.572Z,65.60
2019-05-12T15:59:18.783Z,65.30
2019-05-12T16:01:50.024Z,65.20
2019-05-12T16:04:21.594Z,65.60
2019-05-12T16:06:57.765Z,65.50
2019-05-12T16:09:27.013Z,65.70
2019-05-12T16:11:58.284Z,65.70
2019-05-12T16:14:30.379Z,65.70
2019-05-12T16:17:06.298Z,65.70
2019-05-12T16:19:36.034Z,65.30
2019-05-12T16:22:07.526Z,65.60
2019-05-12T16:24:43.437Z,65.30
2019-05-12T16:27:13.959Z,65.20
2019-05-12T16:29:49.787Z,65.30
2019-05-12T16:32:26.938Z,65.40
2019-05-12T16:34:51.564Z,65.60
2019-05-12T16:37:31.016Z,65.70
2019-05-12T16:39:56.099Z,65.90
2019-05-12T16:42:27.368Z,66.00
2019-05-12T16:45:07.234Z,66.10
2019-05-12T16:47:33.770Z,65.90
2019-05-12T16:50:15.760Z,65.70
2019-05-12T16:52:41.890Z,65.80
2019-05-12T16:55:13.982Z,66.00
2019-05-12T16:57:51.224Z,66.90
2019-05-12T17:00:18.879Z,66.30
2019-05-12T17:02:53.836Z,66.40
2019-05-12T17:05:24.087Z,66.10
2019-05-12T17:07:57.467Z,66.70
2019-05-12T17:10:29.052Z,66.50
2019-05-12T17:13:00.246Z,66.60
2019-05-12T17:15:33.797Z,66.90
2019-05-12T17:18:05.452Z,66.30
2019-05-12T17:20:40.986Z,66.50
2019-05-12T17:23:10.360Z,67.00
2019-05-12T17:25:40.893Z,66.80
2019-05-12T17:28:13.306Z,67.00
2019-05-12T17:30:45.000Z,67.10
2019-05-12T17:33:22.532Z,67.40
2019-05-12T17:35:50.283Z,67.60
2019-05-12T17:38:22.457Z,67.30
2019-05-12T17:40:58.963Z,67.00
2019-05-12T17:43:28.657Z,66.80
2019-05-12T17:46:01.518Z,66.70
2019-05-12T17:48:37.435Z,67.20
2019-05-12T17:51:07.061Z,67.40
2019-05-12T17:53:38.640Z,67.90
2019-05-12T17:56:10.499Z,67.60
2019-05-12T17:58:46.962Z,67.20
2019-05-12T18:01:15.507Z,67.50
2019-05-12T18:03:50.476Z,67.30
2019-05-12T18:06:26.022Z,67.50
2019-05-12T18:08:53.499Z,67.90
2019-05-12T18:11:24.815Z,67.70
2019-05-12T18:14:02.619Z,67.80
2019-05-12T18:16:30.910Z,67.90
2019-05-12T18:19:03.440Z,68.20
2019-05-12T18:21:34.807Z,68.20
2019-05-12T18:24:11.005Z,68.80
2019-05-12T18:26:40.034Z,67.60
2019-05-12T18:29:11.560Z,67.40
2019-05-12T18:31:43.668Z,67.00
2019-05-12T18:34:19.638Z,67.00
2019-05-12T18:36:57.918Z,67.10
2019-05-12T18:39:24.351Z,67.20
2019-05-12T18:41:55.380Z,67.40
2019-05-12T18:44:31.179Z,67.70
2019-05-12T18:47:00.810Z,67.60
2019-05-12T18:49:31.067Z,67.60
2019-05-12T18:52:03.969Z,67.50
2019-05-12T18:54:36.220Z,67.90
2019-05-12T18:57:07.608Z,67.90
2019-05-12T18:59:38.869Z,67.60
2019-05-12T19:02:16.323Z,67.50
2019-05-12T19:04:44.329Z,67.20
2019-05-12T19:07:16.215Z,67.10
2019-05-12T19:09:47.384Z,67.00
2019-05-12T19:12:21.602Z,66.90
2019-05-12T19:14:54.628Z,66.70
2019-05-12T19:17:25.030Z,66.90
2019-05-12T19:19:59.901Z,66.60
2019-05-12T19:22:30.157Z,67.20
2019-05-12T19:25:03.871Z,67.00
2019-05-12T19:27:34.941Z,67.50
2019-05-12T19:30:06.352Z,67.10
2019-05-12T19:32:37.681Z,67.20
2019-05-12T19:35:17.973Z,67.70
2019-05-12T19:37:45.268Z,67.70
2019-05-12T19:40:17.876Z,67.80
2019-05-12T19:42:53.656Z,68.20
2019-05-12T19:45:24.818Z,68.20
2019-05-12T19:47:56.365Z,67.90
2019-05-12T19:50:28.274Z,67.80
2019-05-12T19:52:59.822Z,68.00
2019-05-12T19:55:33.659Z,67.80
2019-05-12T19:58:11.114Z,67.80
2019-05-12T20:00:39.781Z,67.50
2019-05-12T20:03:13.692Z,67.30
2019-05-12T20:05:44.252Z,67.00
2019-05-12T20:08:15.538Z,67.20
2019-05-12T20:10:49.354Z,67.40
2019-05-12T20:13:20.300Z,67.50
2019-05-12T20:15:52.501Z,67.50
2019-05-12T20:18:24.113Z,67.50
2019-05-12T20:20:55.294Z,67.10
2019-05-12T20:23:26.950Z,67.30
2019-05-12T20:25:58.447Z,67.60
2019-05-12T20:28:29.691Z,67.90
2019-05-12T20:31:03.883Z,68.10
2019-05-12T20:33:35.088Z,67.70
2019-05-12T20:36:05.606Z,67.40
2019-05-12T20:38:40.529Z,68.10
2019-05-12T20:41:19.414Z,68.40
2019-05-12T20:43:44.491Z,68.10
2019-05-12T20:46:21.685Z,68.40
2019-05-12T20:48:48.851Z,68.40
2019-05-12T20:51:20.494Z,68.20
2019-05-12T20:53:51.738Z,67.60
2019-05-12T20:56:25.026Z,67.10
2019-05-12T20:58:56.415Z,67.80
2019-05-12T21:01:30.262Z,68.20
2019-05-12T21:04:03.708Z,68.30
2019-05-12T21:06:41.709Z,68.40
2019-05-12T21:09:08.064Z,68.00
2019-05-12T21:11:40.952Z,67.00
2019-05-12T21:14:14.460Z,66.80
2019-05-12T21:16:45.914Z,66.70
2019-05-12T21:19:17.220Z,67.10
2019-05-12T21:21:49.075Z,66.80
2019-05-12T21:24:19.277Z,66.50
2019-05-12T21:26:50.358Z,66.90
2019-05-12T21:29:25.424Z,67.20
2019-05-12T21:31:56.243Z,67.50
2019-05-12T21:34:28.143Z,67.90
2019-05-12T21:37:04.939Z,67.50
2019-05-12T21:39:33.592Z,67.50
2019-05-12T21:42:04.948Z,67.10
2019-05-12T21:44:36.242Z,67.70
2019-05-12T21:47:10.550Z,68.00
2019-05-12T21:49:42.634Z,67.80
2019-05-12T21:52:13.844Z,67.40
2019-05-12T21:54:45.392Z,67.40
2019-05-12T21:57:19.241Z,66.70
2019-05-12T21:59:49.448Z,66.30
2019-05-12T22:02:28.983Z,66.60
2019-05-12T22:04:56.087Z,65.90
2019-05-12T22:07:29.565Z,65.90
2019-05-12T22:10:00.517Z,66.10
2019-05-12T22:12:33.270Z,65.90
2019-05-12T22:15:05.118Z,65.80
2019-05-12T22:17:54.513Z,65.70
2019-05-12T22:20:25.936Z,65.30
2019-05-12T22:23:00.611Z,65.40
2019-05-12T22:25:30.617Z,65.40
2019-05-12T22:28:07.753Z,65.40
2019-05-12T22:30:35.289Z,65.30
2019-05-12T22:33:10.441Z,65.50
2019-05-12T22:35:38.453Z,65.60
2019-05-12T22:38:16.567Z,65.70
2019-05-12T22:40:43.319Z,65.60
2019-05-12T22:43:14.635Z,65.40
2019-05-12T22:45:49.190Z,65.40
2019-05-12T22:48:20.372Z,65.40
2019-05-12T22:50:51.951Z,65.90
2019-05-12T22:53:25.735Z,66.30
2019-05-12T22:55:56.957Z,67.30
2019-05-12T22:58:27.068Z,67.20
2019-05-12T23:01:01.116Z,66.70
2019-05-12T23:03:32.319Z,66.20
2019-05-12T23:06:20.430Z,65.90
2019-05-12T23:08:38.807Z,66.80
2019-05-12T23:11:10.536Z,66.40
2019-05-12T23:13:42.873Z,65.80
2019-05-12T23:16:14.398Z,65.90
2019-05-12T23:18:46.973Z,65.60
2019-05-12T23:21:18.222Z,65.20
2019-05-12T23:23:55.555Z,65.70
2019-05-12T23:26:24.550Z,66.00
2019-05-12T23:28:56.805Z,66.40
2019-05-12T23:31:30.113Z,66.50
2019-05-12T23:34:06.220Z,66.20
2019-05-12T23:36:38.793Z,65.90
2019-05-12T23:39:08.089Z,65.70
2019-05-12T23:41:38.573Z,65.30
2019-05-12T23:44:09.622Z,65.20
2019-05-12T23:46:43.587Z,65.10
2019-05-12T23:49:14.446Z,64.60
2019-05-12T23:51:46.114Z,64.50
2019-05-12T23:54:17.566Z,64.70
2019-05-12T23:56:49.151Z,64.60
2019-05-12T23:59:20.668Z,65.30
